createdAt,value
2023-05-19T00:02:06.002Z,11.40
2023-05-19T00:04:38.662Z,11.63
2023-05-19T00:07:09.454Z,11.30
2023-05-19T00:09:37.766Z,12.25
2023-05-19T00:12:05.092Z,12.63
2023-05-19T00:14:32.211Z,11.18
2023-05-19T00:17:02.057Z,12.30
2023-05-19T00:19:32.435Z,12.43
2023-05-19T00:21:59.899Z,13.20
2023-05-19T00:24:27.016Z,14.43
2023-05-19T00:26:53.892Z,13.30
2023-05-19T00:29:20.741Z,13.85
2023-05-19T00:31:47.639Z,13.32
2023-05-19T00:34:14.561Z,14.15
2023-05-19T00:36:41.642Z,13.75
2023-05-19T00:39:08.566Z,13.43
2023-05-19T00:41:35.663Z,13.25
2023-05-19T00:44:02.614Z,14.57
2023-05-19T00:46:30.630Z,14.43
2023-05-19T00:48:58.018Z,14.02
2023-05-19T00:51:27.470Z,14.35
2023-05-19T00:53:54.586Z,14.40
2023-05-19T00:56:23.585Z,14.35
2023-05-19T00:58:51.955Z,14.18
2023-05-19T01:01:21.496Z,14.23
2023-05-19T01:03:49.433Z,14.20
2023-05-19T01:06:19.312Z,14.35
2023-05-19T01:08:46.574Z,14.90
2023-05-19T01:11:13.582Z,14.25
2023-05-19T01:13:42.194Z,14.13
2023-05-19T01:16:17.084Z,14.30
2023-05-19T01:18:56.962Z,15.00
2023-05-19T01:21:57.831Z,15.20
2023-05-19T01:24:24.806Z,15.48
2023-05-19T01:27:04.126Z,15.10
2023-05-19T01:29:56.181Z,15.45
2023-05-19T01:32:25.589Z,14.43
2023-05-19T01:34:53.935Z,14.68
2023-05-19T01:37:22.019Z,14.52
2023-05-19T01:39:51.933Z,14.70
2023-05-19T01:42:20.861Z,14.93
2023-05-19T01:44:48.398Z,14.95
2023-05-19T01:47:16.138Z,14.77
2023-05-19T01:49:43.208Z,15.00
2023-05-19T01:52:10.273Z,14.68
2023-05-19T01:54:38.181Z,14.68
2023-05-19T01:57:08.278Z,15.50
2023-05-19T02:00:13.213Z,15.07
2023-05-19T02:02:59.165Z,13.93
2023-05-19T02:05:44.451Z,15.27
2023-05-19T02:08:20.810Z,14.93
2023-05-19T02:10:56.250Z,14.65
2023-05-19T02:13:27.093Z,15.32
2023-05-19T02:15:58.524Z,15.07
2023-05-19T02:18:29.995Z,16.38
2023-05-19T02:20:57.200Z,15.95
2023-05-19T02:23:24.604Z,16.25
2023-05-19T02:25:51.841Z,15.10
2023-05-19T02:28:18.866Z,14.80
2023-05-19T02:30:45.768Z,15.75
2023-05-19T02:33:12.819Z,16.30
2023-05-19T02:35:39.692Z,15.73
2023-05-19T02:38:06.687Z,15.55
2023-05-19T02:40:33.875Z,16.02
2023-05-19T02:43:01.769Z,15.23
2023-05-19T02:45:29.329Z,15.55
2023-05-19T02:47:56.939Z,16.08
2023-05-19T02:50:23.886Z,15.52
2023-05-19T02:52:52.635Z,15.30
2023-05-19T02:55:20.055Z,15.27
2023-05-19T02:57:46.930Z,16.05
2023-05-19T03:00:15.385Z,14.63
2023-05-19T03:02:44.126Z,15.77
2023-05-19T03:05:11.554Z,15.25
2023-05-19T03:07:38.760Z,15.27
2023-05-19T03:10:06.855Z,15.77
2023-05-19T03:12:33.917Z,15.95
2023-05-19T03:15:01.274Z,16.00
2023-05-19T03:17:33.661Z,17.05
2023-05-19T03:20:01.770Z,14.73
2023-05-19T03:22:31.152Z,15.40
2023-05-19T03:24:58.500Z,15.10
2023-05-19T03:27:25.840Z,14.30
2023-05-19T03:29:54.125Z,14.35
2023-05-19T03:32:21.385Z,14.40
2023-05-19T03:34:48.462Z,15.27
2023-05-19T03:37:15.466Z,14.80
2023-05-19T03:39:42.367Z,14.57
2023-05-19T03:42:09.598Z,14.13
2023-05-19T03:44:36.576Z,14.02
2023-05-19T03:47:03.539Z,14.20
2023-05-19T03:49:30.608Z,14.10
2023-05-19T03:51:58.180Z,14.25
2023-05-19T03:54:25.060Z,13.90
2023-05-19T03:56:52.144Z,14.00
2023-05-19T03:59:19.236Z,14.25
2023-05-19T04:01:46.519Z,14.10
2023-05-19T04:04:13.542Z,14.07
2023-05-19T04:06:40.746Z,14.18
2023-05-19T04:09:15.140Z,14.90
2023-05-19T04:11:43.131Z,17.08
2023-05-19T04:14:10.221Z,13.73
2023-05-19T04:16:37.643Z,14.40
2023-05-19T04:19:04.687Z,13.98
2023-05-19T04:21:31.688Z,13.82
2023-05-19T04:24:01.830Z,14.05
2023-05-19T04:26:30.942Z,15.75
2023-05-19T04:28:57.868Z,13.80
2023-05-19T04:31:24.859Z,15.07
2023-05-19T04:33:53.524Z,13.95
2023-05-19T04:36:21.751Z,12.93
2023-05-19T04:38:48.985Z,14.43
2023-05-19T04:41:16.844Z,15.02
2023-05-19T04:43:44.823Z,13.93
2023-05-19T04:46:13.814Z,14.25
2023-05-19T04:48:41.426Z,15.27
2023-05-19T04:51:08.736Z,13.93
2023-05-19T04:53:36.751Z,14.30
2023-05-19T04:56:04.147Z,13.77
2023-05-19T04:58:31.489Z,13.95
2023-05-19T05:01:01.314Z,14.63
2023-05-19T05:03:28.382Z,13.35
2023-05-19T05:05:56.728Z,14.85
2023-05-19T05:08:23.719Z,14.32
2023-05-19T05:10:55.155Z,13.20
2023-05-19T05:13:23.956Z,13.75
2023-05-19T05:15:54.351Z,14.15
2023-05-19T05:18:21.798Z,14.27
2023-05-19T05:20:49.285Z,14.18
2023-05-19T05:23:16.931Z,13.52
2023-05-19T05:25:44.658Z,13.02
2023-05-19T05:28:12.023Z,14.10
2023-05-19T05:30:39.029Z,13.77
2023-05-19T05:33:06.625Z,14.07
2023-05-19T05:35:34.108Z,13.98
2023-05-19T05:38:03.275Z,14.07
2023-05-19T05:40:30.699Z,12.55
2023-05-19T05:43:00.680Z,14.43
2023-05-19T05:45:27.628Z,13.25
2023-05-19T05:47:55.128Z,13.75
2023-05-19T05:50:22.520Z,15.05
2023-05-19T05:52:52.739Z,14.23
2023-05-19T05:55:21.950Z,13.75
2023-05-19T05:57:50.643Z,13.70
2023-05-19T06:00:18.981Z,13.23
2023-05-19T06:02:47.466Z,13.10
2023-05-19T06:05:14.917Z,13.15
2023-05-19T06:07:42.345Z,12.32
2023-05-19T06:10:10.961Z,12.80
2023-05-19T06:12:40.906Z,12.35
2023-05-19T06:15:08.395Z,12.68
2023-05-19T06:17:36.269Z,12.45
2023-05-19T06:20:05.691Z,12.07
2023-05-19T06:22:32.835Z,11.50
2023-05-19T06:24:59.950Z,12.65
2023-05-19T06:27:27.000Z,11.95
2023-05-19T06:29:54.428Z,11.57
2023-05-19T06:32:21.692Z,11.68
2023-05-19T06:34:54.515Z,11.27
2023-05-19T06:37:23.135Z,11.25
2023-05-19T06:39:52.501Z,10.88
2023-05-19T06:42:23.048Z,10.70
2023-05-19T06:44:51.628Z,10.02
2023-05-19T06:47:19.262Z,11.10
2023-05-19T06:49:50.804Z,10.93
2023-05-19T06:52:18.558Z,9.93
2023-05-19T06:54:45.880Z,9.85
2023-05-19T06:57:13.124Z,10.70
2023-05-19T06:59:43.905Z,9.93
2023-05-19T07:02:10.931Z,9.85
2023-05-19T07:04:38.133Z,10.75
2023-05-19T07:07:05.470Z,9.85
2023-05-19T07:09:32.459Z,9.50
2023-05-19T07:11:59.437Z,9.90
2023-05-19T07:14:27.182Z,10.27
2023-05-19T07:16:54.578Z,9.40
2023-05-19T07:19:22.718Z,9.23
2023-05-19T07:21:50.248Z,9.27
2023-05-19T07:24:17.294Z,9.73
2023-05-19T07:26:44.288Z,10.55
2023-05-19T07:29:11.331Z,9.68
2023-05-19T07:31:38.549Z,9.00
2023-05-19T07:34:06.050Z,9.85
2023-05-19T07:36:33.048Z,8.90
2023-05-19T07:39:00.296Z,9.43
2023-05-19T07:41:27.312Z,9.90
2023-05-19T07:43:54.777Z,9.38
2023-05-19T07:46:22.442Z,10.35
2023-05-19T07:48:49.656Z,10.13
2023-05-19T07:51:17.011Z,9.30
2023-05-19T07:53:43.873Z,10.05
2023-05-19T07:56:11.135Z,10.02
2023-05-19T07:58:38.095Z,9.90
2023-05-19T08:01:05.258Z,10.18
2023-05-19T08:03:32.761Z,10.43
2023-05-19T08:05:59.984Z,9.68
2023-05-19T08:08:27.078Z,9.20
2023-05-19T08:10:54.216Z,9.07
2023-05-19T08:13:22.253Z,8.77
2023-05-19T08:15:49.286Z,8.93
2023-05-19T08:18:16.584Z,9.93
2023-05-19T08:20:44.304Z,9.45
2023-05-19T08:23:12.692Z,9.90
2023-05-19T08:25:40.765Z,8.60
2023-05-19T08:28:10.664Z,8.32
2023-05-19T08:30:44.273Z,8.88
2023-05-19T08:33:11.942Z,8.65
2023-05-19T08:35:39.148Z,8.82
2023-05-19T08:38:09.298Z,9.15
2023-05-19T08:40:41.561Z,8.07
2023-05-19T08:43:11.237Z,7.88
2023-05-19T08:45:43.227Z,8.10
2023-05-19T08:48:10.372Z,8.50
2023-05-19T08:50:44.335Z,7.78
2023-05-19T08:53:28.878Z,7.72
2023-05-19T08:56:11.054Z,8.07
2023-05-19T08:58:44.482Z,8.25
2023-05-19T09:01:17.019Z,7.60
2023-05-19T09:03:46.046Z,7.80
2023-05-19T09:06:13.423Z,8.45
2023-05-19T09:08:42.474Z,7.90
2023-05-19T09:11:10.431Z,8.60
2023-05-19T09:13:37.977Z,9.13
2023-05-19T09:16:05.293Z,9.18
2023-05-19T09:18:32.580Z,10.07
2023-05-19T09:21:03.033Z,9.32
2023-05-19T09:23:35.032Z,9.20
2023-05-19T09:26:08.014Z,10.60
2023-05-19T09:28:36.770Z,12.07
2023-05-19T09:31:04.980Z,12.02
2023-05-19T09:33:35.091Z,12.88
2023-05-19T09:36:03.792Z,14.27
2023-05-19T09:38:30.821Z,14.30
2023-05-19T09:40:59.408Z,13.77
2023-05-19T09:43:32.498Z,13.40
2023-05-19T09:46:14.633Z,12.32
2023-05-19T09:48:42.614Z,12.68
2023-05-19T09:51:12.727Z,14.50
2023-05-19T09:53:39.915Z,15.80
2023-05-19T09:56:14.559Z,15.73
2023-05-19T09:58:45.620Z,14.98
2023-05-19T10:01:16.645Z,14.23
2023-05-19T10:03:45.522Z,14.10
2023-05-19T10:06:12.938Z,13.70
2023-05-19T10:08:42.513Z,13.88
2023-05-19T10:11:13.780Z,13.85
2023-05-19T10:13:41.950Z,10.68
2023-05-19T10:16:10.072Z,8.95
2023-05-19T10:18:39.961Z,8.77
2023-05-19T10:21:09.333Z,9.88
2023-05-19T10:23:36.430Z,10.80
2023-05-19T10:26:06.646Z,12.05
2023-05-19T10:28:41.116Z,12.63
2023-05-19T10:31:12.770Z,13.63
2023-05-19T10:34:40.672Z,11.75
2023-05-19T10:37:17.922Z,16.73
2023-05-19T10:39:45.712Z,8.43
2023-05-19T10:42:31.748Z,8.30
2023-05-19T10:45:10.892Z,11.32
2023-05-19T10:47:38.473Z,12.02
2023-05-19T10:50:06.929Z,10.02
2023-05-19T10:52:37.889Z,9.98
2023-05-19T10:55:09.459Z,9.75
2023-05-19T10:57:36.769Z,10.10
2023-05-19T11:00:25.626Z,9.02
2023-05-19T11:02:56.434Z,9.70
2023-05-19T11:05:29.770Z,9.63
2023-05-19T11:08:05.200Z,12.18
2023-05-19T11:10:32.695Z,12.85
2023-05-19T11:12:59.988Z,12.40
2023-05-19T11:15:28.168Z,13.00
2023-05-19T11:17:55.543Z,9.80
2023-05-19T11:20:28.632Z,7.38
2023-05-19T11:23:14.751Z,9.68
2023-05-19T11:25:43.659Z,10.98
2023-05-19T11:28:16.874Z,8.95
2023-05-19T11:30:46.005Z,9.85
2023-05-19T11:33:14.444Z,10.20
2023-05-19T11:35:43.774Z,9.95
2023-05-19T11:38:11.818Z,10.38
2023-05-19T11:40:39.312Z,10.45
2023-05-19T11:43:06.660Z,10.35
2023-05-19T11:45:34.493Z,8.57
2023-05-19T11:48:05.597Z,10.15
2023-05-19T11:50:33.424Z,11.40
2023-05-19T11:53:01.572Z,10.52
2023-05-19T11:55:29.674Z,10.57
2023-05-19T11:58:04.943Z,11.13
2023-05-19T12:00:39.425Z,11.48
2023-05-19T12:03:08.712Z,7.35
2023-05-19T12:05:45.481Z,8.60
2023-05-19T12:08:13.296Z,9.90
2023-05-19T12:10:41.123Z,9.27
2023-05-19T12:13:09.935Z,11.10
2023-05-19T12:15:37.809Z,11.35
2023-05-19T12:18:05.082Z,10.07
2023-05-19T12:20:32.945Z,8.85
2023-05-19T12:23:01.632Z,8.48
2023-05-19T12:25:32.677Z,9.02
2023-05-19T12:28:03.226Z,9.82
2023-05-19T12:30:31.971Z,6.68
2023-05-19T12:32:59.469Z,5.75
2023-05-19T12:35:29.152Z,6.97
2023-05-19T12:37:56.147Z,6.80
2023-05-19T12:40:23.366Z,6.32
2023-05-19T12:42:53.434Z,5.50
2023-05-19T12:45:22.907Z,5.13
2023-05-19T12:47:51.245Z,5.03
2023-05-19T12:50:18.299Z,5.60
2023-05-19T12:52:48.220Z,4.32
2023-05-19T12:55:16.775Z,3.65
2023-05-19T12:57:57.297Z,5.32
2023-05-19T13:00:28.321Z,6.45
2023-05-19T13:03:06.066Z,5.68
2023-05-19T13:05:39.367Z,5.78
2023-05-19T13:08:12.289Z,5.78
2023-05-19T13:10:40.971Z,4.53
2023-05-19T13:13:09.393Z,3.90
2023-05-19T13:15:44.010Z,3.88
2023-05-19T13:18:12.503Z,4.78
2023-05-19T13:20:41.750Z,4.10
2023-05-19T13:23:14.312Z,4.03
2023-05-19T13:25:42.265Z,3.33
2023-05-19T13:28:09.881Z,3.85
2023-05-19T13:30:42.315Z,3.70
2023-05-19T13:33:09.234Z,3.80
2023-05-19T13:35:39.174Z,3.30
2023-05-19T13:38:08.314Z,4.57
2023-05-19T13:40:35.515Z,4.68
2023-05-19T13:43:03.575Z,4.40
2023-05-19T13:45:31.696Z,3.83
2023-05-19T13:47:58.730Z,4.13
2023-05-19T13:50:25.892Z,3.95
2023-05-19T13:52:53.469Z,3.92
2023-05-19T13:55:20.651Z,3.65
2023-05-19T13:57:47.546Z,3.55
2023-05-19T14:00:20.105Z,3.53
2023-05-19T14:02:47.379Z,4.10
2023-05-19T14:05:14.432Z,3.75
2023-05-19T14:07:43.273Z,5.00
2023-05-19T14:10:13.900Z,4.43
2023-05-19T14:13:02.419Z,4.57
2023-05-19T14:15:29.597Z,4.20
2023-05-19T14:17:56.684Z,3.88
2023-05-19T14:20:26.787Z,4.35
2023-05-19T14:23:00.532Z,4.57
2023-05-19T14:25:30.810Z,5.40
2023-05-19T14:27:57.754Z,5.40
2023-05-19T14:30:25.464Z,5.05
2023-05-19T14:32:52.908Z,6.18
2023-05-19T14:35:20.498Z,5.82
2023-05-19T14:37:49.198Z,5.85
2023-05-19T14:40:19.436Z,6.18
2023-05-19T14:42:46.537Z,5.35
2023-05-19T14:45:14.424Z,4.70
2023-05-19T14:47:41.276Z,5.22
2023-05-19T14:50:08.399Z,5.45
2023-05-19T14:52:36.170Z,6.07
2023-05-19T14:55:03.834Z,5.85
2023-05-19T14:57:30.724Z,5.43
2023-05-19T14:59:58.574Z,5.28
2023-05-19T15:02:27.457Z,5.40
2023-05-19T15:04:55.906Z,4.28
2023-05-19T15:07:24.657Z,5.70
2023-05-19T15:09:52.542Z,5.82
2023-05-19T15:12:19.686Z,5.30
2023-05-19T15:14:46.961Z,5.05
2023-05-19T15:17:14.224Z,5.20
2023-05-19T15:19:42.916Z,5.50
2023-05-19T15:22:11.057Z,4.95
2023-05-19T15:24:38.457Z,5.03
2023-05-19T15:27:05.948Z,5.00
2023-05-19T15:29:33.214Z,4.80
2023-05-19T15:32:00.536Z,4.35
2023-05-19T15:34:27.574Z,4.70
2023-05-19T15:36:54.766Z,4.60
2023-05-19T15:39:21.727Z,5.85
2023-05-19T15:41:51.699Z,5.00
2023-05-19T15:44:18.842Z,5.40
2023-05-19T15:46:46.143Z,4.65
2023-05-19T15:49:13.550Z,4.88
2023-05-19T15:51:53.170Z,4.97
2023-05-19T15:54:20.588Z,4.22
2023-05-19T15:56:47.573Z,4.20
2023-05-19T15:59:15.460Z,4.38
2023-05-19T16:01:43.259Z,4.63
2023-05-19T16:04:10.811Z,4.93
2023-05-19T16:06:38.079Z,5.32
2023-05-19T16:09:05.113Z,6.45
2023-05-19T16:11:32.516Z,7.05
2023-05-19T16:14:00.551Z,6.88
2023-05-19T16:16:28.352Z,7.45
2023-05-19T16:18:55.562Z,8.38
2023-05-19T16:21:23.587Z,8.15
2023-05-19T16:23:50.748Z,8.07
2023-05-19T16:26:17.837Z,8.35
2023-05-19T16:28:47.330Z,8.02
2023-05-19T16:31:17.872Z,8.10
2023-05-19T16:33:44.958Z,11.13
2023-05-19T16:36:11.975Z,10.75
2023-05-19T16:38:39.107Z,7.60
2023-05-19T16:41:10.838Z,9.85
2023-05-19T16:43:38.150Z,7.93
2023-05-19T16:46:08.569Z,8.20
2023-05-19T16:48:39.040Z,8.43
2023-05-19T16:51:06.468Z,8.15
2023-05-19T16:53:33.407Z,7.70
2023-05-19T16:56:01.340Z,7.63
2023-05-19T16:58:30.954Z,7.28
2023-05-19T17:00:58.127Z,6.93
2023-05-19T17:03:25.354Z,7.22
2023-05-19T17:05:52.548Z,6.85
2023-05-19T17:08:19.741Z,7.43
2023-05-19T17:10:48.216Z,7.25
2023-05-19T17:13:15.469Z,6.43
2023-05-19T17:15:43.384Z,6.75
2023-05-19T17:18:12.647Z,6.65
2023-05-19T17:20:39.808Z,6.10
2023-05-19T17:23:07.013Z,6.28
2023-05-19T17:25:34.752Z,6.25
2023-05-19T17:28:01.769Z,6.10
2023-05-19T17:30:28.835Z,5.68
2023-05-19T17:32:59.081Z,6.90
2023-05-19T17:35:28.305Z,6.32
2023-05-19T17:37:55.624Z,5.85
2023-05-19T17:40:22.772Z,5.85
2023-05-19T17:42:49.812Z,6.22
2023-05-19T17:45:16.872Z,6.05
2023-05-19T17:47:44.021Z,6.75
2023-05-19T17:50:11.184Z,5.93
2023-05-19T17:52:40.521Z,5.68
2023-05-19T17:55:08.522Z,5.55
2023-05-19T17:57:37.290Z,5.55
2023-05-19T18:00:07.983Z,5.15
2023-05-19T18:02:42.772Z,5.82
2023-05-19T18:05:11.074Z,5.32
2023-05-19T18:07:39.735Z,5.63
2023-05-19T18:10:07.580Z,5.85
2023-05-19T18:12:34.739Z,5.35
2023-05-19T18:15:01.907Z,6.13
2023-05-19T18:17:28.981Z,5.95
2023-05-19T18:19:56.343Z,6.03
2023-05-19T18:22:23.519Z,5.70
2023-05-19T18:24:50.794Z,5.80
2023-05-19T18:27:17.970Z,5.93
2023-05-19T18:29:45.007Z,5.53
2023-05-19T18:32:14.737Z,5.70
2023-05-19T18:34:42.135Z,6.00
2023-05-19T18:37:09.243Z,5.05
2023-05-19T18:39:38.155Z,4.97
2023-05-19T18:42:06.023Z,5.25
2023-05-19T18:44:33.903Z,5.47
2023-05-19T18:47:01.298Z,5.60
2023-05-19T18:49:28.252Z,5.38
2023-05-19T18:51:55.208Z,4.78
2023-05-19T18:54:22.529Z,5.65
2023-05-19T18:56:49.523Z,5.03
2023-05-19T18:59:19.758Z,5.60
2023-05-19T19:01:46.765Z,4.88
2023-05-19T19:04:14.866Z,5.15
2023-05-19T19:06:43.232Z,4.90
2023-05-19T19:09:12.031Z,4.80
2023-05-19T19:11:39.315Z,5.13
2023-05-19T19:14:06.833Z,4.93
2023-05-19T19:16:38.262Z,4.85
2023-05-19T19:19:07.587Z,5.80
2023-05-19T19:21:34.748Z,4.72
2023-05-19T19:24:02.282Z,4.90
2023-05-19T19:26:29.316Z,5.35
2023-05-19T19:28:56.787Z,4.93
2023-05-19T19:31:26.015Z,5.25
2023-05-19T19:33:53.325Z,4.88
2023-05-19T19:36:20.549Z,5.25
2023-05-19T19:38:47.610Z,5.13
2023-05-19T19:41:14.749Z,5.22
2023-05-19T19:43:42.003Z,5.10
2023-05-19T19:46:09.322Z,4.85
2023-05-19T19:48:40.003Z,5.38
2023-05-19T19:51:06.923Z,4.90
2023-05-19T19:53:34.643Z,5.03
2023-05-19T19:56:03.097Z,4.95
2023-05-19T19:58:30.586Z,4.80
2023-05-19T20:01:02.337Z,5.07
2023-05-19T20:03:29.785Z,5.13
2023-05-19T20:05:57.160Z,4.97
2023-05-19T20:08:25.070Z,5.47
2023-05-19T20:10:52.114Z,6.03
2023-05-19T20:13:19.785Z,6.18
2023-05-19T20:15:48.301Z,5.25
2023-05-19T20:18:15.675Z,5.65
2023-05-19T20:20:42.988Z,6.30
2023-05-19T20:23:10.037Z,5.60
2023-05-19T20:25:58.417Z,6.15
2023-05-19T20:28:29.969Z,5.28
2023-05-19T20:30:57.049Z,5.68
2023-05-19T20:33:24.136Z,5.45
2023-05-19T20:35:51.778Z,6.00
2023-05-19T20:38:18.875Z,5.85
2023-05-19T20:40:46.007Z,6.25
2023-05-19T20:43:13.002Z,5.93
2023-05-19T20:45:42.605Z,5.88
2023-05-19T20:48:11.156Z,6.85
2023-05-19T20:50:39.615Z,5.38
2023-05-19T20:53:07.549Z,6.93
2023-05-19T20:55:36.330Z,5.93
2023-05-19T20:58:05.119Z,5.72
2023-05-19T21:00:32.516Z,5.88
2023-05-19T21:02:59.818Z,6.63
2023-05-19T21:05:26.926Z,6.07
2023-05-19T21:07:54.298Z,5.95
2023-05-19T21:10:21.621Z,5.97
2023-05-19T21:12:54.698Z,6.25
2023-05-19T21:15:21.705Z,6.82
2023-05-19T21:17:48.581Z,6.90
2023-05-19T21:20:15.584Z,6.97
2023-05-19T21:22:42.703Z,6.43
2023-05-19T21:25:09.894Z,7.00
2023-05-19T21:27:36.768Z,6.45
2023-05-19T21:30:03.969Z,5.80
2023-05-19T21:32:31.202Z,6.38
2023-05-19T21:34:58.340Z,6.32
2023-05-19T21:37:25.471Z,6.30
2023-05-19T21:39:52.601Z,5.57
2023-05-19T21:42:19.706Z,6.68
2023-05-19T21:44:46.998Z,5.43
2023-05-19T21:47:14.388Z,6.43
2023-05-19T21:49:41.458Z,5.75
2023-05-19T21:52:08.460Z,6.57
2023-05-19T21:54:36.156Z,5.90
2023-05-19T21:57:03.123Z,6.03
2023-05-19T21:59:30.569Z,5.88
2023-05-19T22:01:58.409Z,6.22
2023-05-19T22:04:25.727Z,6.95
2023-05-19T22:06:52.902Z,6.82
2023-05-19T22:09:19.811Z,5.88
2023-05-19T22:11:47.571Z,6.10
2023-05-19T22:14:14.762Z,6.43
2023-05-19T22:16:41.793Z,6.88
2023-05-19T22:19:08.710Z,6.30
2023-05-19T22:21:35.642Z,6.00
2023-05-19T22:24:02.795Z,6.78
2023-05-19T22:26:29.952Z,5.95
2023-05-19T22:28:56.974Z,6.63
2023-05-19T22:31:23.936Z,6.38
2023-05-19T22:33:50.980Z,6.20
2023-05-19T22:36:17.979Z,6.03
2023-05-19T22:38:44.992Z,6.90
2023-05-19T22:41:12.722Z,5.85
2023-05-19T22:43:39.828Z,6.93
2023-05-19T22:46:06.986Z,6.97
2023-05-19T22:48:34.201Z,6.80
2023-05-19T22:51:01.329Z,6.43
2023-05-19T22:53:28.493Z,7.97
2023-05-19T22:55:55.590Z,6.85
2023-05-19T22:58:22.698Z,6.85
2023-05-19T23:00:49.874Z,7.43
2023-05-19T23:03:19.131Z,6.88
2023-05-19T23:05:46.192Z,7.25
2023-05-19T23:08:13.062Z,7.72
2023-05-19T23:10:39.924Z,7.93
2023-05-19T23:13:06.784Z,7.82
2023-05-19T23:15:33.857Z,8.02
2023-05-19T23:18:07.081Z,7.93
2023-05-19T23:20:34.764Z,7.75
2023-05-19T23:23:02.322Z,7.88
2023-05-19T23:25:30.580Z,7.47
2023-05-19T23:27:57.572Z,7.75
2023-05-19T23:30:24.481Z,7.35
2023-05-19T23:32:51.598Z,8.35
2023-05-19T23:35:20.143Z,7.60
2023-05-19T23:37:47.142Z,7.72
2023-05-19T23:40:14.988Z,8.32
2023-05-19T23:42:42.052Z,8.52
2023-05-19T23:45:09.317Z,8.32
2023-05-19T23:47:36.503Z,8.38
2023-05-19T23:50:03.762Z,8.32
2023-05-19T23:52:31.768Z,8.80
2023-05-19T23:54:58.684Z,8.95
2023-05-19T23:57:25.752Z,9.55
2023-05-19T23:59:53.161Z,9.45
